sensor_id;sensor_type;location;lat;lon;timestamp;P1;durP1;ratioP1;P2;durP2;ratioP2
37873;SDS011;23709;48.078;11.684;2023-04-06T00:00:43;17.23;;;11.05;;
37873;SDS011;23709;48.078;11.684;2023-04-06T00:03:15;17.30;;;11.35;;
37873;SDS011;23709;48.078;11.684;2023-04-06T00:05:48;25.58;;;11.55;;
37873;SDS011;23709;48.078;11.684;2023-04-06T00:08:20;16.92;;;11.27;;
37873;SDS011;23709;48.078;11.684;2023-04-06T00:10:52;20.25;;;11.65;;
37873;SDS011;23709;48.078;11.684;2023-04-06T00:13:27;19.98;;;11.00;;
37873;SDS011;23709;48.078;11.684;2023-04-06T00:15:59;21.58;;;11.43;;
37873;SDS011;23709;48.078;11.684;2023-04-06T00:18:32;16.27;;;10.30;;
37873;SDS011;23709;48.078;11.684;2023-04-06T00:21:04;16.38;;;10.15;;
37873;SDS011;23709;48.078;11.684;2023-04-06T00:23:36;18.60;;;11.90;;
37873;SDS011;23709;48.078;11.684;2023-04-06T00:26:09;19.48;;;11.68;;
37873;SDS011;23709;48.078;11.684;2023-04-06T00:28:44;22.83;;;11.52;;
37873;SDS011;23709;48.078;11.684;2023-04-06T00:31:17;21.92;;;11.18;;
37873;SDS011;23709;48.078;11.684;2023-04-06T00:33:49;18.27;;;11.50;;
37873;SDS011;23709;48.078;11.684;2023-04-06T00:36:21;19.55;;;11.73;;
37873;SDS011;23709;48.078;11.684;2023-04-06T00:38:54;18.75;;;10.80;;
37873;SDS011;23709;48.078;11.684;2023-04-06T00:41:26;21.23;;;12.57;;
37873;SDS011;23709;48.078;11.684;2023-04-06T00:43:58;16.70;;;10.90;;
37873;SDS011;23709;48.078;11.684;2023-04-06T00:46:31;16.52;;;10.80;;
37873;SDS011;23709;48.078;11.684;2023-04-06T00:51:35;18.42;;;10.55;;
37873;SDS011;23709;48.078;11.684;2023-04-06T00:54:07;19.63;;;12.05;;
37873;SDS011;23709;48.078;11.684;2023-04-06T00:56:41;24.17;;;12.48;;
37873;SDS011;23709;48.078;11.684;2023-04-06T00:59:14;27.60;;;13.05;;
37873;SDS011;23709;48.078;11.684;2023-04-06T01:01:47;21.67;;;11.88;;
37873;SDS011;23709;48.078;11.684;2023-04-06T01:04:33;21.88;;;12.80;;
37873;SDS011;23709;48.078;11.684;2023-04-06T01:07:07;20.15;;;11.55;;
37873;SDS011;23709;48.078;11.684;2023-04-06T01:09:47;22.58;;;12.13;;
37873;SDS011;23709;48.078;11.684;2023-04-06T01:12:25;19.83;;;12.25;;
37873;SDS011;23709;48.078;11.684;2023-04-06T01:14:58;19.97;;;12.37;;
37873;SDS011;23709;48.078;11.684;2023-04-06T01:17:33;19.27;;;11.82;;
37873;SDS011;23709;48.078;11.684;2023-04-06T01:20:13;18.75;;;12.45;;
37873;SDS011;23709;48.078;11.684;2023-04-06T01:22:45;22.65;;;11.88;;
37873;SDS011;23709;48.078;11.684;2023-04-06T01:25:18;21.92;;;12.10;;
37873;SDS011;23709;48.078;11.684;2023-04-06T01:28:11;20.42;;;10.90;;
37873;SDS011;23709;48.078;11.684;2023-04-06T01:30:59;19.30;;;11.75;;
37873;SDS011;23709;48.078;11.684;2023-04-06T01:33:44;18.58;;;11.13;;
37873;SDS011;23709;48.078;11.684;2023-04-06T01:36:20;20.65;;;12.57;;
37873;SDS011;23709;48.078;11.684;2023-04-06T01:38:59;21.85;;;12.35;;
37873;SDS011;23709;48.078;11.684;2023-04-06T01:41:38;19.00;;;11.88;;
37873;SDS011;23709;48.078;11.684;2023-04-06T01:44:10;20.58;;;12.57;;
37873;SDS011;23709;48.078;11.684;2023-04-06T01:46:43;18.90;;;11.85;;
37873;SDS011;23709;48.078;11.684;2023-04-06T01:49:20;18.98;;;11.93;;
37873;SDS011;23709;48.078;11.684;2023-04-06T01:51:57;19.65;;;11.40;;
37873;SDS011;23709;48.078;11.684;2023-04-06T01:54:29;18.80;;;12.00;;
37873;SDS011;23709;48.078;11.684;2023-04-06T01:57:17;23.65;;;12.93;;
37873;SDS011;23709;48.078;11.684;2023-04-06T01:59:54;27.88;;;12.98;;
37873;SDS011;23709;48.078;11.684;2023-04-06T02:02:43;21.83;;;12.52;;
37873;SDS011;23709;48.078;11.684;2023-04-06T02:05:23;20.67;;;11.80;;
37873;SDS011;23709;48.078;11.684;2023-04-06T02:07:57;21.60;;;12.45;;
37873;SDS011;23709;48.078;11.684;2023-04-06T02:10:35;18.15;;;11.02;;
37873;SDS011;23709;48.078;11.684;2023-04-06T02:13:16;23.58;;;11.35;;
37873;SDS011;23709;48.078;11.684;2023-04-06T02:15:52;19.02;;;12.23;;
37873;SDS011;23709;48.078;11.684;2023-04-06T02:18:24;23.83;;;11.05;;
37873;SDS011;23709;48.078;11.684;2023-04-06T02:20:57;18.08;;;12.30;;
37873;SDS011;23709;48.078;11.684;2023-04-06T02:23:32;17.23;;;11.05;;
37873;SDS011;23709;48.078;11.684;2023-04-06T02:26:04;21.63;;;12.38;;
37873;SDS011;23709;48.078;11.684;2023-04-06T02:28:36;17.30;;;11.70;;
37873;SDS011;23709;48.078;11.684;2023-04-06T02:31:08;17.48;;;10.52;;
37873;SDS011;23709;48.078;11.684;2023-04-06T02:33:41;20.48;;;11.77;;
37873;SDS011;23709;48.078;11.684;2023-04-06T02:36:14;20.08;;;11.73;;
37873;SDS011;23709;48.078;11.684;2023-04-06T02:38:46;18.70;;;11.27;;
37873;SDS011;23709;48.078;11.684;2023-04-06T02:41:18;18.55;;;12.15;;
37873;SDS011;23709;48.078;11.684;2023-04-06T02:43:51;17.23;;;11.27;;
37873;SDS011;23709;48.078;11.684;2023-04-06T02:46:34;21.67;;;13.07;;
37873;SDS011;23709;48.078;11.684;2023-04-06T02:49:07;19.92;;;12.38;;
37873;SDS011;23709;48.078;11.684;2023-04-06T02:51:40;19.75;;;11.40;;
37873;SDS011;23709;48.078;11.684;2023-04-06T02:54:22;21.13;;;11.70;;
37873;SDS011;23709;48.078;11.684;2023-04-06T02:56:54;23.33;;;12.82;;
37873;SDS011;23709;48.078;11.684;2023-04-06T02:59:31;20.23;;;11.60;;
37873;SDS011;23709;48.078;11.684;2023-04-06T03:02:11;19.10;;;11.93;;
37873;SDS011;23709;48.078;11.684;2023-04-06T03:04:47;20.00;;;11.48;;
37873;SDS011;23709;48.078;11.684;2023-04-06T03:07:31;21.30;;;12.07;;
37873;SDS011;23709;48.078;11.684;2023-04-06T03:10:03;17.77;;;11.48;;
37873;SDS011;23709;48.078;11.684;2023-04-06T03:12:36;18.05;;;11.25;;
37873;SDS011;23709;48.078;11.684;2023-04-06T03:15:35;21.30;;;11.88;;
37873;SDS011;23709;48.078;11.684;2023-04-06T03:18:20;21.02;;;12.40;;
37873;SDS011;23709;48.078;11.684;2023-04-06T03:20:57;18.48;;;11.15;;
37873;SDS011;23709;48.078;11.684;2023-04-06T03:23:49;21.65;;;12.45;;
37873;SDS011;23709;48.078;11.684;2023-04-06T03:26:22;24.42;;;14.63;;
37873;SDS011;23709;48.078;11.684;2023-04-06T03:31:32;17.25;;;11.25;;
37873;SDS011;23709;48.078;11.684;2023-04-06T03:34:11;24.08;;;12.27;;
37873;SDS011;23709;48.078;11.684;2023-04-06T03:36:47;22.77;;;12.13;;
37873;SDS011;23709;48.078;11.684;2023-04-06T03:39:34;27.25;;;12.98;;
37873;SDS011;23709;48.078;11.684;2023-04-06T03:42:07;18.90;;;12.68;;
37873;SDS011;23709;48.078;11.684;2023-04-06T03:44:45;21.17;;;12.90;;
37873;SDS011;23709;48.078;11.684;2023-04-06T03:47:17;20.20;;;12.63;;
37873;SDS011;23709;48.078;11.684;2023-04-06T03:49:50;20.38;;;13.13;;
37873;SDS011;23709;48.078;11.684;2023-04-06T03:52:22;25.10;;;13.00;;
37873;SDS011;23709;48.078;11.684;2023-04-06T03:57:28;19.33;;;11.15;;
37873;SDS011;23709;48.078;11.684;2023-04-06T04:00:01;26.73;;;13.93;;
37873;SDS011;23709;48.078;11.684;2023-04-06T04:02:43;22.80;;;12.68;;
37873;SDS011;23709;48.078;11.684;2023-04-06T04:05:15;20.50;;;12.77;;
37873;SDS011;23709;48.078;11.684;2023-04-06T04:07:47;20.15;;;12.48;;
37873;SDS011;23709;48.078;11.684;2023-04-06T04:10:20;23.73;;;13.60;;
37873;SDS011;23709;48.078;11.684;2023-04-06T04:12:52;22.27;;;13.02;;
37873;SDS011;23709;48.078;11.684;2023-04-06T04:15:24;24.08;;;12.98;;
37873;SDS011;23709;48.078;11.684;2023-04-06T04:17:56;20.17;;;13.07;;
37873;SDS011;23709;48.078;11.684;2023-04-06T04:20:28;20.38;;;12.35;;
37873;SDS011;23709;48.078;11.684;2023-04-06T04:23:00;28.15;;;12.93;;
37873;SDS011;23709;48.078;11.684;2023-04-06T04:25:35;20.65;;;12.27;;
37873;SDS011;23709;48.078;11.684;2023-04-06T04:28:08;20.40;;;12.23;;
37873;SDS011;23709;48.078;11.684;2023-04-06T04:30:41;24.88;;;13.32;;
37873;SDS011;23709;48.078;11.684;2023-04-06T04:33:15;24.55;;;12.75;;
37873;SDS011;23709;48.078;11.684;2023-04-06T04:35:48;26.75;;;14.05;;
37873;SDS011;23709;48.078;11.684;2023-04-06T04:38:24;21.98;;;14.35;;
37873;SDS011;23709;48.078;11.684;2023-04-06T04:40:59;26.65;;;13.90;;
37873;SDS011;23709;48.078;11.684;2023-04-06T04:43:31;21.45;;;13.43;;
37873;SDS011;23709;48.078;11.684;2023-04-06T04:46:05;28.75;;;14.85;;
37873;SDS011;23709;48.078;11.684;2023-04-06T04:48:44;25.02;;;14.60;;
37873;SDS011;23709;48.078;11.684;2023-04-06T04:51:16;22.40;;;13.73;;
37873;SDS011;23709;48.078;11.684;2023-04-06T04:53:58;23.38;;;12.75;;
37873;SDS011;23709;48.078;11.684;2023-04-06T04:56:34;25.27;;;13.55;;
37873;SDS011;23709;48.078;11.684;2023-04-06T04:59:29;22.63;;;12.98;;
37873;SDS011;23709;48.078;11.684;2023-04-06T05:02:11;20.70;;;11.93;;
37873;SDS011;23709;48.078;11.684;2023-04-06T05:04:52;20.98;;;12.32;;
37873;SDS011;23709;48.078;11.684;2023-04-06T05:07:28;23.58;;;12.70;;
37873;SDS011;23709;48.078;11.684;2023-04-06T05:10:03;27.58;;;13.57;;
37873;SDS011;23709;48.078;11.684;2023-04-06T05:12:41;20.83;;;11.88;;
37873;SDS011;23709;48.078;11.684;2023-04-06T05:17:47;27.02;;;12.23;;
37873;SDS011;23709;48.078;11.684;2023-04-06T05:20:24;25.98;;;12.63;;
37873;SDS011;23709;48.078;11.684;2023-04-06T05:22:57;24.63;;;13.43;;
37873;SDS011;23709;48.078;11.684;2023-04-06T05:25:29;22.67;;;13.82;;
37873;SDS011;23709;48.078;11.684;2023-04-06T05:28:08;18.42;;;12.15;;
37873;SDS011;23709;48.078;11.684;2023-04-06T05:30:42;23.38;;;11.38;;
37873;SDS011;23709;48.078;11.684;2023-04-06T05:33:16;20.02;;;12.35;;
37873;SDS011;23709;48.078;11.684;2023-04-06T05:36:01;24.15;;;12.13;;
37873;SDS011;23709;48.078;11.684;2023-04-06T05:38:33;26.33;;;13.63;;
37873;SDS011;23709;48.078;11.684;2023-04-06T05:41:14;19.80;;;12.05;;
37873;SDS011;23709;48.078;11.684;2023-04-06T05:43:47;25.45;;;12.43;;
37873;SDS011;23709;48.078;11.684;2023-04-06T05:46:19;27.38;;;13.00;;
37873;SDS011;23709;48.078;11.684;2023-04-06T05:48:52;21.83;;;11.27;;
37873;SDS011;23709;48.078;11.684;2023-04-06T05:51:28;23.10;;;12.23;;
37873;SDS011;23709;48.078;11.684;2023-04-06T05:54:00;19.30;;;12.35;;
37873;SDS011;23709;48.078;11.684;2023-04-06T05:56:33;22.87;;;12.57;;
37873;SDS011;23709;48.078;11.684;2023-04-06T05:59:06;19.80;;;11.73;;
37873;SDS011;23709;48.078;11.684;2023-04-06T06:01:39;20.30;;;11.90;;
37873;SDS011;23709;48.078;11.684;2023-04-06T06:04:11;20.80;;;12.30;;
37873;SDS011;23709;48.078;11.684;2023-04-06T06:06:44;19.27;;;12.75;;
37873;SDS011;23709;48.078;11.684;2023-04-06T06:09:22;22.38;;;12.02;;
37873;SDS011;23709;48.078;11.684;2023-04-06T06:12:04;27.42;;;14.38;;
37873;SDS011;23709;48.078;11.684;2023-04-06T06:14:36;24.00;;;12.82;;
37873;SDS011;23709;48.078;11.684;2023-04-06T06:17:08;25.23;;;12.18;;
37873;SDS011;23709;48.078;11.684;2023-04-06T06:19:41;20.20;;;11.77;;
37873;SDS011;23709;48.078;11.684;2023-04-06T06:22:13;25.88;;;12.95;;
37873;SDS011;23709;48.078;11.684;2023-04-06T06:24:49;19.83;;;11.65;;
37873;SDS011;23709;48.078;11.684;2023-04-06T06:27:24;28.40;;;12.80;;
37873;SDS011;23709;48.078;11.684;2023-04-06T06:29:56;23.10;;;13.13;;
37873;SDS011;23709;48.078;11.684;2023-04-06T06:32:29;20.83;;;11.80;;
37873;SDS011;23709;48.078;11.684;2023-04-06T06:35:02;23.88;;;12.32;;
37873;SDS011;23709;48.078;11.684;2023-04-06T06:37:35;22.20;;;12.15;;
37873;SDS011;23709;48.078;11.684;2023-04-06T06:42:42;19.77;;;12.30;;
37873;SDS011;23709;48.078;11.684;2023-04-06T06:45:40;21.17;;;11.45;;
37873;SDS011;23709;48.078;11.684;2023-04-06T06:48:13;20.40;;;12.50;;
37873;SDS011;23709;48.078;11.684;2023-04-06T06:50:46;20.88;;;12.48;;
37873;SDS011;23709;48.078;11.684;2023-04-06T06:53:19;20.42;;;11.88;;
37873;SDS011;23709;48.078;11.684;2023-04-06T06:55:52;19.87;;;13.13;;
37873;SDS011;23709;48.078;11.684;2023-04-06T06:58:24;19.50;;;11.35;;
37873;SDS011;23709;48.078;11.684;2023-04-06T07:00:58;21.27;;;12.05;;
37873;SDS011;23709;48.078;11.684;2023-04-06T07:03:33;24.08;;;11.65;;
37873;SDS011;23709;48.078;11.684;2023-04-06T07:06:05;23.05;;;11.45;;
37873;SDS011;23709;48.078;11.684;2023-04-06T07:08:38;21.63;;;12.32;;
37873;SDS011;23709;48.078;11.684;2023-04-06T07:11:10;24.08;;;12.77;;
37873;SDS011;23709;48.078;11.684;2023-04-06T07:13:42;24.38;;;10.85;;
37873;SDS011;23709;48.078;11.684;2023-04-06T07:16:14;20.43;;;12.27;;
37873;SDS011;23709;48.078;11.684;2023-04-06T07:18:47;17.10;;;10.75;;
37873;SDS011;23709;48.078;11.684;2023-04-06T07:21:20;18.90;;;11.60;;
37873;SDS011;23709;48.078;11.684;2023-04-06T07:23:52;17.02;;;10.88;;
37873;SDS011;23709;48.078;11.684;2023-04-06T07:26:24;17.95;;;10.93;;
37873;SDS011;23709;48.078;11.684;2023-04-06T07:28:57;20.10;;;10.75;;
37873;SDS011;23709;48.078;11.684;2023-04-06T07:31:29;17.50;;;10.27;;
37873;SDS011;23709;48.078;11.684;2023-04-06T07:34:02;19.08;;;10.13;;
37873;SDS011;23709;48.078;11.684;2023-04-06T07:36:34;24.47;;;11.93;;
37873;SDS011;23709;48.078;11.684;2023-04-06T07:39:06;21.17;;;10.68;;
37873;SDS011;23709;48.078;11.684;2023-04-06T07:41:40;16.15;;;10.05;;
37873;SDS011;23709;48.078;11.684;2023-04-06T07:44:12;14.68;;;10.07;;
37873;SDS011;23709;48.078;11.684;2023-04-06T07:46:44;19.25;;;10.77;;
37873;SDS011;23709;48.078;11.684;2023-04-06T07:49:17;14.47;;;9.37;;
37873;SDS011;23709;48.078;11.684;2023-04-06T07:51:49;17.17;;;10.52;;
37873;SDS011;23709;48.078;11.684;2023-04-06T07:54:22;14.38;;;10.02;;
37873;SDS011;23709;48.078;11.684;2023-04-06T07:56:54;19.25;;;10.30;;
37873;SDS011;23709;48.078;11.684;2023-04-06T07:59:26;16.90;;;10.65;;
37873;SDS011;23709;48.078;11.684;2023-04-06T08:01:59;17.38;;;10.02;;
37873;SDS011;23709;48.078;11.684;2023-04-06T08:04:31;18.48;;;11.60;;
37873;SDS011;23709;48.078;11.684;2023-04-06T08:07:03;16.92;;;10.55;;
37873;SDS011;23709;48.078;11.684;2023-04-06T08:09:35;17.70;;;10.40;;
37873;SDS011;23709;48.078;11.684;2023-04-06T08:12:07;22.25;;;10.98;;
37873;SDS011;23709;48.078;11.684;2023-04-06T08:14:40;18.33;;;10.77;;
37873;SDS011;23709;48.078;11.684;2023-04-06T08:17:12;16.08;;;10.52;;
37873;SDS011;23709;48.078;11.684;2023-04-06T08:19:44;15.40;;;10.43;;
37873;SDS011;23709;48.078;11.684;2023-04-06T08:22:16;19.05;;;10.55;;
37873;SDS011;23709;48.078;11.684;2023-04-06T08:24:49;18.45;;;9.95;;
37873;SDS011;23709;48.078;11.684;2023-04-06T08:27:21;16.43;;;11.90;;
37873;SDS011;23709;48.078;11.684;2023-04-06T08:29:53;17.73;;;11.77;;
37873;SDS011;23709;48.078;11.684;2023-04-06T08:32:26;18.23;;;11.18;;
37873;SDS011;23709;48.078;11.684;2023-04-06T08:34:58;18.13;;;11.73;;
37873;SDS011;23709;48.078;11.684;2023-04-06T08:37:31;19.60;;;11.75;;
37873;SDS011;23709;48.078;11.684;2023-04-06T08:40:03;18.27;;;10.77;;
37873;SDS011;23709;48.078;11.684;2023-04-06T08:42:39;17.80;;;11.63;;
37873;SDS011;23709;48.078;11.684;2023-04-06T08:45:14;16.10;;;11.40;;
37873;SDS011;23709;48.078;11.684;2023-04-06T08:47:49;20.80;;;11.18;;
37873;SDS011;23709;48.078;11.684;2023-04-06T08:50:23;14.40;;;10.63;;
37873;SDS011;23709;48.078;11.684;2023-04-06T08:52:56;17.85;;;11.05;;
37873;SDS011;23709;48.078;11.684;2023-04-06T08:55:29;15.43;;;10.52;;
37873;SDS011;23709;48.078;11.684;2023-04-06T08:58:01;15.80;;;11.00;;
37873;SDS011;23709;48.078;11.684;2023-04-06T09:00:37;16.13;;;10.95;;
37873;SDS011;23709;48.078;11.684;2023-04-06T09:03:11;15.90;;;10.40;;
37873;SDS011;23709;48.078;11.684;2023-04-06T09:08:18;16.92;;;11.63;;
37873;SDS011;23709;48.078;11.684;2023-04-06T09:10:51;15.77;;;10.95;;
37873;SDS011;23709;48.078;11.684;2023-04-06T09:13:24;17.13;;;11.15;;
37873;SDS011;23709;48.078;11.684;2023-04-06T09:16:03;19.70;;;12.68;;
37873;SDS011;23709;48.078;11.684;2023-04-06T09:18:37;18.10;;;11.45;;
37873;SDS011;23709;48.078;11.684;2023-04-06T09:21:10;18.58;;;11.43;;
37873;SDS011;23709;48.078;11.684;2023-04-06T09:23:42;18.73;;;11.48;;
37873;SDS011;23709;48.078;11.684;2023-04-06T09:26:15;17.77;;;12.35;;
37873;SDS011;23709;48.078;11.684;2023-04-06T09:28:52;19.35;;;12.30;;
37873;SDS011;23709;48.078;11.684;2023-04-06T09:31:26;18.42;;;11.65;;
37873;SDS011;23709;48.078;11.684;2023-04-06T09:34:00;17.52;;;11.70;;
37873;SDS011;23709;48.078;11.684;2023-04-06T09:36:34;21.48;;;12.80;;
37873;SDS011;23709;48.078;11.684;2023-04-06T09:39:09;17.90;;;11.45;;
37873;SDS011;23709;48.078;11.684;2023-04-06T09:41:41;21.70;;;12.55;;
37873;SDS011;23709;48.078;11.684;2023-04-06T09:44:22;19.15;;;11.70;;
37873;SDS011;23709;48.078;11.684;2023-04-06T09:46:55;21.83;;;12.43;;
37873;SDS011;23709;48.078;11.684;2023-04-06T09:49:31;25.90;;;13.18;;
37873;SDS011;23709;48.078;11.684;2023-04-06T09:52:05;18.60;;;12.52;;
37873;SDS011;23709;48.078;11.684;2023-04-06T09:54:40;18.00;;;12.57;;
37873;SDS011;23709;48.078;11.684;2023-04-06T09:57:24;17.88;;;11.73;;
37873;SDS011;23709;48.078;11.684;2023-04-06T10:00:06;19.75;;;11.30;;
37873;SDS011;23709;48.078;11.684;2023-04-06T10:02:51;19.35;;;10.30;;
37873;SDS011;23709;48.078;11.684;2023-04-06T10:08:10;20.42;;;11.35;;
37873;SDS011;23709;48.078;11.684;2023-04-06T10:10:43;17.92;;;11.38;;
37873;SDS011;23709;48.078;11.684;2023-04-06T10:13:17;16.27;;;11.43;;
37873;SDS011;23709;48.078;11.684;2023-04-06T10:15:51;19.40;;;11.98;;
37873;SDS011;23709;48.078;11.684;2023-04-06T10:18:24;20.25;;;11.95;;
37873;SDS011;23709;48.078;11.684;2023-04-06T10:21:06;19.23;;;11.45;;
37873;SDS011;23709;48.078;11.684;2023-04-06T10:23:51;21.45;;;12.23;;
37873;SDS011;23709;48.078;11.684;2023-04-06T10:26:26;19.02;;;12.52;;
37873;SDS011;23709;48.078;11.684;2023-04-06T10:29:02;19.02;;;11.13;;
37873;SDS011;23709;48.078;11.684;2023-04-06T10:31:39;17.75;;;11.38;;
37873;SDS011;23709;48.078;11.684;2023-04-06T10:34:13;17.75;;;11.43;;
37873;SDS011;23709;48.078;11.684;2023-04-06T10:36:46;28.73;;;12.27;;
37873;SDS011;23709;48.078;11.684;2023-04-06T10:39:24;17.92;;;11.18;;
37873;SDS011;23709;48.078;11.684;2023-04-06T10:41:57;15.02;;;10.75;;
37873;SDS011;23709;48.078;11.684;2023-04-06T10:44:41;20.88;;;11.52;;
37873;SDS011;23709;48.078;11.684;2023-04-06T10:47:16;20.58;;;11.77;;
37873;SDS011;23709;48.078;11.684;2023-04-06T10:49:52;14.65;;;8.70;;
37873;SDS011;23709;48.078;11.684;2023-04-06T10:52:24;16.13;;;11.80;;
37873;SDS011;23709;48.078;11.684;2023-04-06T10:54:56;15.93;;;11.05;;
37873;SDS011;23709;48.078;11.684;2023-04-06T10:57:29;14.70;;;10.40;;
37873;SDS011;23709;48.078;11.684;2023-04-06T11:00:04;15.65;;;10.73;;
37873;SDS011;23709;48.078;11.684;2023-04-06T11:02:37;16.52;;;11.15;;
37873;SDS011;23709;48.078;11.684;2023-04-06T11:05:11;15.40;;;10.93;;
37873;SDS011;23709;48.078;11.684;2023-04-06T11:07:43;17.05;;;11.32;;
37873;SDS011;23709;48.078;11.684;2023-04-06T11:10:20;19.50;;;11.13;;
37873;SDS011;23709;48.078;11.684;2023-04-06T11:12:54;17.10;;;12.07;;
37873;SDS011;23709;48.078;11.684;2023-04-06T11:15:27;19.77;;;11.65;;
37873;SDS011;23709;48.078;11.684;2023-04-06T11:18:08;19.00;;;11.05;;
37873;SDS011;23709;48.078;11.684;2023-04-06T11:20:40;18.08;;;11.10;;
37873;SDS011;23709;48.078;11.684;2023-04-06T11:23:23;15.05;;;11.15;;
37873;SDS011;23709;48.078;11.684;2023-04-06T11:25:59;18.08;;;11.27;;
37873;SDS011;23709;48.078;11.684;2023-04-06T11:28:31;21.40;;;11.17;;
37873;SDS011;23709;48.078;11.684;2023-04-06T11:31:03;17.30;;;11.30;;
37873;SDS011;23709;48.078;11.684;2023-04-06T11:33:37;19.77;;;11.75;;
37873;SDS011;23709;48.078;11.684;2023-04-06T11:36:10;16.80;;;10.95;;
37873;SDS011;23709;48.078;11.684;2023-04-06T11:38:45;15.30;;;10.30;;
37873;SDS011;23709;48.078;11.684;2023-04-06T11:41:17;14.68;;;9.98;;
37873;SDS011;23709;48.078;11.684;2023-04-06T11:43:49;14.80;;;10.38;;
37873;SDS011;23709;48.078;11.684;2023-04-06T11:46:21;19.60;;;10.95;;
37873;SDS011;23709;48.078;11.684;2023-04-06T11:48:57;15.13;;;10.35;;
37873;SDS011;23709;48.078;11.684;2023-04-06T11:51:35;15.40;;;11.50;;
37873;SDS011;23709;48.078;11.684;2023-04-06T11:54:07;14.20;;;10.50;;
37873;SDS011;23709;48.078;11.684;2023-04-06T11:56:40;14.95;;;10.98;;
37873;SDS011;23709;48.078;11.684;2023-04-06T11:59:12;14.52;;;9.32;;
37873;SDS011;23709;48.078;11.684;2023-04-06T12:01:44;15.52;;;9.82;;
37873;SDS011;23709;48.078;11.684;2023-04-06T12:04:16;16.67;;;9.50;;
37873;SDS011;23709;48.078;11.684;2023-04-06T12:06:49;11.63;;;8.55;;
37873;SDS011;23709;48.078;11.684;2023-04-06T12:09:21;12.60;;;8.68;;
37873;SDS011;23709;48.078;11.684;2023-04-06T12:11:54;13.57;;;8.97;;
37873;SDS011;23709;48.078;11.684;2023-04-06T12:14:27;14.02;;;9.63;;
37873;SDS011;23709;48.078;11.684;2023-04-06T12:16:59;15.57;;;10.77;;
37873;SDS011;23709;48.078;11.684;2023-04-06T12:19:32;17.33;;;10.13;;
37873;SDS011;23709;48.078;11.684;2023-04-06T12:22:04;14.02;;;9.68;;
37873;SDS011;23709;48.078;11.684;2023-04-06T12:24:36;13.48;;;10.25;;
37873;SDS011;23709;48.078;11.684;2023-04-06T12:27:08;13.15;;;9.85;;
37873;SDS011;23709;48.078;11.684;2023-04-06T12:29:43;13.00;;;9.95;;
37873;SDS011;23709;48.078;11.684;2023-04-06T12:32:15;13.60;;;9.98;;
37873;SDS011;23709;48.078;11.684;2023-04-06T12:34:47;12.63;;;8.82;;
37873;SDS011;23709;48.078;11.684;2023-04-06T12:37:19;12.13;;;9.38;;
37873;SDS011;23709;48.078;11.684;2023-04-06T12:39:52;11.93;;;9.75;;
37873;SDS011;23709;48.078;11.684;2023-04-06T12:42:24;15.60;;;9.80;;
37873;SDS011;23709;48.078;11.684;2023-04-06T12:44:56;12.68;;;9.20;;
37873;SDS011;23709;48.078;11.684;2023-04-06T12:47:28;14.95;;;10.65;;
37873;SDS011;23709;48.078;11.684;2023-04-06T12:50:01;13.77;;;9.73;;
37873;SDS011;23709;48.078;11.684;2023-04-06T12:52:33;11.98;;;9.27;;
37873;SDS011;23709;48.078;11.684;2023-04-06T12:55:07;15.82;;;9.57;;
37873;SDS011;23709;48.078;11.684;2023-04-06T12:57:39;11.18;;;8.82;;
37873;SDS011;23709;48.078;11.684;2023-04-06T13:00:12;12.32;;;8.77;;
37873;SDS011;23709;48.078;11.684;2023-04-06T13:02:46;14.75;;;8.55;;
37873;SDS011;23709;48.078;11.684;2023-04-06T13:05:18;8.85;;;7.43;;
37873;SDS011;23709;48.078;11.684;2023-04-06T13:07:51;13.85;;;8.88;;
37873;SDS011;23709;48.078;11.684;2023-04-06T13:10:23;11.68;;;8.43;;
37873;SDS011;23709;48.078;11.684;2023-04-06T13:12:55;13.20;;;10.13;;
37873;SDS011;23709;48.078;11.684;2023-04-06T13:15:27;13.40;;;9.57;;
37873;SDS011;23709;48.078;11.684;2023-04-06T13:17:59;13.50;;;9.65;;
37873;SDS011;23709;48.078;11.684;2023-04-06T13:20:31;11.85;;;8.73;;
37873;SDS011;23709;48.078;11.684;2023-04-06T13:23:04;12.85;;;9.52;;
37873;SDS011;23709;48.078;11.684;2023-04-06T13:25:36;11.38;;;9.10;;
37873;SDS011;23709;48.078;11.684;2023-04-06T13:28:09;10.48;;;8.07;;
37873;SDS011;23709;48.078;11.684;2023-04-06T13:30:42;11.98;;;8.18;;
37873;SDS011;23709;48.078;11.684;2023-04-06T13:33:14;14.65;;;9.13;;
37873;SDS011;23709;48.078;11.684;2023-04-06T13:35:46;13.13;;;8.05;;
37873;SDS011;23709;48.078;11.684;2023-04-06T13:38:18;11.95;;;8.25;;
37873;SDS011;23709;48.078;11.684;2023-04-06T13:40:51;12.73;;;8.68;;
37873;SDS011;23709;48.078;11.684;2023-04-06T13:43:23;11.63;;;7.73;;
37873;SDS011;23709;48.078;11.684;2023-04-06T13:45:57;13.98;;;8.10;;
37873;SDS011;23709;48.078;11.684;2023-04-06T13:48:32;11.75;;;7.93;;
37873;SDS011;23709;48.078;11.684;2023-04-06T13:51:08;9.15;;;7.25;;
37873;SDS011;23709;48.078;11.684;2023-04-06T13:53:41;9.90;;;7.70;;
37873;SDS011;23709;48.078;11.684;2023-04-06T13:56:13;11.35;;;7.30;;
37873;SDS011;23709;48.078;11.684;2023-04-06T13:58:46;15.38;;;8.88;;
37873;SDS011;23709;48.078;11.684;2023-04-06T14:01:18;9.25;;;7.22;;
37873;SDS011;23709;48.078;11.684;2023-04-06T14:03:50;14.48;;;8.23;;
37873;SDS011;23709;48.078;11.684;2023-04-06T14:06:23;8.25;;;7.15;;
37873;SDS011;23709;48.078;11.684;2023-04-06T14:09:01;12.55;;;8.80;;
37873;SDS011;23709;48.078;11.684;2023-04-06T14:11:34;11.02;;;7.60;;
37873;SDS011;23709;48.078;11.684;2023-04-06T14:14:06;11.33;;;8.13;;
37873;SDS011;23709;48.078;11.684;2023-04-06T14:16:38;10.73;;;7.90;;
37873;SDS011;23709;48.078;11.684;2023-04-06T14:19:20;11.15;;;7.72;;
37873;SDS011;23709;48.078;11.684;2023-04-06T14:21:55;9.85;;;7.43;;
37873;SDS011;23709;48.078;11.684;2023-04-06T14:24:27;12.57;;;8.13;;
37873;SDS011;23709;48.078;11.684;2023-04-06T14:27:00;10.32;;;7.43;;
37873;SDS011;23709;48.078;11.684;2023-04-06T14:29:32;11.15;;;8.10;;
37873;SDS011;23709;48.078;11.684;2023-04-06T14:32:05;12.30;;;8.30;;
37873;SDS011;23709;48.078;11.684;2023-04-06T14:34:37;12.32;;;8.90;;
37873;SDS011;23709;48.078;11.684;2023-04-06T14:37:09;11.05;;;8.52;;
37873;SDS011;23709;48.078;11.684;2023-04-06T14:39:43;10.52;;;7.28;;
37873;SDS011;23709;48.078;11.684;2023-04-06T14:42:16;14.50;;;7.85;;
37873;SDS011;23709;48.078;11.684;2023-04-06T14:44:49;10.23;;;7.63;;
37873;SDS011;23709;48.078;11.684;2023-04-06T14:47:22;12.48;;;7.82;;
37873;SDS011;23709;48.078;11.684;2023-04-06T14:49:54;14.30;;;8.25;;
37873;SDS011;23709;48.078;11.684;2023-04-06T14:52:26;11.95;;;8.38;;
37873;SDS011;23709;48.078;11.684;2023-04-06T14:55:01;11.77;;;9.15;;
37873;SDS011;23709;48.078;11.684;2023-04-06T14:57:33;13.43;;;8.68;;
37873;SDS011;23709;48.078;11.684;2023-04-06T15:00:06;12.18;;;7.97;;
37873;SDS011;23709;48.078;11.684;2023-04-06T15:05:14;11.23;;;7.60;;
37873;SDS011;23709;48.078;11.684;2023-04-06T15:07:47;10.95;;;7.00;;
37873;SDS011;23709;48.078;11.684;2023-04-06T15:10:19;7.65;;;6.68;;
37873;SDS011;23709;48.078;11.684;2023-04-06T15:12:51;7.35;;;5.90;;